createdAt,value
2023-02-17T00:00:25.140Z,101382.66
2023-02-17T00:02:56.361Z,101383.72
2023-02-17T00:05:23.976Z,101399.50
2023-02-17T00:07:51.583Z,101390.56
2023-02-17T00:10:19.216Z,101392.81
2023-02-17T00:12:48.288Z,101384.13
2023-02-17T00:15:15.912Z,101373.91
2023-02-17T00:17:43.588Z,101375.81
2023-02-17T00:20:11.838Z,101375.66
2023-02-17T00:22:39.533Z,101366.41
2023-02-17T00:25:07.492Z,101361.44
2023-02-17T00:27:35.124Z,101358.00
2023-02-17T00:30:04.473Z,101359.13
2023-02-17T00:32:32.144Z,101353.00
2023-02-17T00:34:59.779Z,101349.47
2023-02-17T00:37:27.502Z,101344.63
2023-02-17T00:39:56.026Z,101335.91
2023-02-17T00:42:23.666Z,101347.09
2023-02-17T00:44:51.329Z,101340.09
2023-02-17T00:47:22.509Z,101341.41
2023-02-17T00:49:50.204Z,101337.16
2023-02-17T00:52:17.797Z,101333.75
2023-02-17T00:54:45.494Z,101335.69
2023-02-17T00:57:13.139Z,101333.56
2023-02-17T00:59:41.388Z,101331.19
2023-02-17T01:02:09.033Z,101317.41
2023-02-17T01:04:38.565Z,101312.84
2023-02-17T01:07:06.943Z,101312.19
2023-02-17T01:09:34.604Z,101301.38
2023-02-17T01:12:03.472Z,101298.44
2023-02-17T01:14:32.541Z,101297.78
2023-02-17T01:17:00.272Z,101290.25
2023-02-17T01:19:29.481Z,101289.50
2023-02-17T01:21:58.560Z,101295.50
2023-02-17T01:24:26.245Z,101291.78
2023-02-17T01:26:55.799Z,101297.75
2023-02-17T01:29:25.871Z,101290.50
2023-02-17T01:31:53.613Z,101273.91
2023-02-17T01:34:23.453Z,101278.03
2023-02-17T01:36:51.199Z,101266.13
2023-02-17T01:39:20.247Z,101265.91
2023-02-17T01:41:47.964Z,101260.47
2023-02-17T01:44:16.365Z,101259.19
2023-02-17T01:46:44.656Z,101262.72
2023-02-17T01:49:16.917Z,101257.41
2023-02-17T01:51:44.637Z,101256.50
2023-02-17T01:54:13.413Z,101254.66
2023-02-17T01:56:43.223Z,101243.97
2023-02-17T01:59:11.818Z,101252.91
2023-02-17T02:01:39.633Z,101248.31
2023-02-17T02:04:07.419Z,101243.50
2023-02-17T02:06:35.468Z,101240.84
2023-02-17T02:09:04.482Z,101243.91
2023-02-17T02:11:32.324Z,101238.91
2023-02-17T02:14:01.351Z,101231.88
2023-02-17T02:16:30.635Z,101229.66
2023-02-17T02:18:59.766Z,101227.69
2023-02-17T02:21:39.265Z,101223.09
2023-02-17T02:24:13.321Z,101216.81
2023-02-17T02:26:46.512Z,101208.78
2023-02-17T02:29:19.359Z,101200.94
2023-02-17T02:31:47.413Z,101190.28
2023-02-17T02:34:16.917Z,101181.97
2023-02-17T02:36:44.808Z,101175.31
2023-02-17T02:39:15.498Z,101169.47
2023-02-17T02:41:43.782Z,101174.06
2023-02-17T02:44:14.563Z,101175.47
2023-02-17T02:46:42.194Z,101174.59
2023-02-17T02:49:13.201Z,101177.56
2023-02-17T02:51:48.217Z,101165.97
2023-02-17T02:54:20.710Z,101174.34
2023-02-17T02:56:52.504Z,101161.13
2023-02-17T02:59:24.655Z,101164.19
2023-02-17T03:01:53.394Z,101155.88
2023-02-17T03:04:26.545Z,101148.81
2023-02-17T03:06:56.361Z,101147.78
2023-02-17T03:09:24.598Z,101145.50
2023-02-17T03:11:52.876Z,101140.16
2023-02-17T03:14:22.114Z,101133.84
2023-02-17T03:16:50.438Z,101120.06
2023-02-17T03:19:19.951Z,101113.84
2023-02-17T03:21:49.786Z,101109.81
2023-02-17T03:24:19.011Z,101116.91
2023-02-17T03:26:46.765Z,101114.88
2023-02-17T03:29:14.499Z,101112.38
2023-02-17T03:31:42.336Z,101116.03
2023-02-17T03:34:10.086Z,101120.41
2023-02-17T03:36:37.738Z,101109.84
2023-02-17T03:39:05.386Z,101122.28
2023-02-17T03:41:34.392Z,101128.22
2023-02-17T03:44:03.296Z,101126.22
2023-02-17T03:46:31.120Z,101122.78
2023-02-17T03:48:58.772Z,101110.41
2023-02-17T03:51:26.694Z,101111.06
2023-02-17T03:53:54.330Z,101116.53
2023-02-17T03:56:21.955Z,101108.88
2023-02-17T03:58:50.962Z,101115.78
2023-02-17T04:01:18.689Z,101101.50
2023-02-17T04:03:46.398Z,101101.63
2023-02-17T04:06:14.006Z,101105.63
2023-02-17T04:08:41.719Z,101109.22
2023-02-17T04:11:09.754Z,101103.13
2023-02-17T04:13:37.511Z,101094.22
2023-02-17T04:16:07.992Z,101094.69
2023-02-17T04:18:36.087Z,101093.97
2023-02-17T04:21:03.796Z,101090.72
2023-02-17T04:23:31.451Z,101080.38
2023-02-17T04:25:59.054Z,101094.50
2023-02-17T04:28:27.216Z,101100.63
2023-02-17T04:30:54.917Z,101085.38
2023-02-17T04:33:23.965Z,101085.16
2023-02-17T04:35:51.594Z,101066.47
2023-02-17T04:38:19.216Z,101070.72
2023-02-17T04:40:46.943Z,101068.44
2023-02-17T04:43:14.582Z,101067.47
2023-02-17T04:45:42.312Z,101059.25
2023-02-17T04:48:09.922Z,101070.69
2023-02-17T04:50:41.991Z,101072.97
2023-02-17T04:53:09.829Z,101075.50
2023-02-17T04:55:37.456Z,101063.72
2023-02-17T04:58:05.276Z,101065.97
2023-02-17T05:00:32.893Z,101053.66
2023-02-17T05:03:00.536Z,101057.03
2023-02-17T05:05:28.216Z,101051.09
2023-02-17T05:07:57.231Z,101044.47
2023-02-17T05:10:24.937Z,101052.78
2023-02-17T05:12:52.614Z,101058.66
2023-02-17T05:15:21.713Z,101051.44
2023-02-17T05:17:49.413Z,101042.00
2023-02-17T05:20:17.289Z,101032.56
2023-02-17T05:22:44.947Z,101037.81
2023-02-17T05:25:13.963Z,101049.25
2023-02-17T05:27:41.579Z,101037.34
2023-02-17T05:30:09.468Z,101035.28
2023-02-17T05:32:37.130Z,101027.50
2023-02-17T05:35:04.869Z,101030.00
2023-02-17T05:37:32.483Z,101020.81
2023-02-17T05:40:00.112Z,101019.50
2023-02-17T05:42:29.125Z,101020.56
2023-02-17T05:44:56.745Z,101015.91
2023-02-17T05:47:26.143Z,101013.91
2023-02-17T05:49:55.133Z,101009.09
2023-02-17T05:52:22.766Z,101017.41
2023-02-17T05:54:50.354Z,101011.91
2023-02-17T05:57:18.063Z,101015.66
2023-02-17T05:59:47.124Z,101017.31
2023-02-17T06:02:14.781Z,101012.53
2023-02-17T06:04:42.419Z,101019.22
2023-02-17T06:07:10.099Z,101005.16
2023-02-17T06:09:37.723Z,101009.81
2023-02-17T06:12:05.601Z,101011.38
2023-02-17T06:14:33.294Z,101005.56
2023-02-17T06:17:04.019Z,100997.59
2023-02-17T06:19:31.714Z,100995.16
2023-02-17T06:21:59.348Z,100994.97
2023-02-17T06:24:27.061Z,100992.03
2023-02-17T06:26:54.698Z,100985.63
2023-02-17T06:29:22.371Z,100982.75
2023-02-17T06:31:50.073Z,100980.84
2023-02-17T06:34:19.145Z,100986.69
2023-02-17T06:36:46.758Z,100980.72
2023-02-17T06:39:14.500Z,100975.91
2023-02-17T06:41:42.746Z,100982.66
2023-02-17T06:44:10.608Z,100982.28
2023-02-17T06:46:38.225Z,100983.66
2023-02-17T06:49:06.150Z,100973.16
2023-02-17T06:51:35.136Z,100970.38
2023-02-17T06:54:05.435Z,100971.53
2023-02-17T06:56:33.178Z,100978.06
2023-02-17T06:59:02.048Z,100972.38
2023-02-17T07:01:29.810Z,100970.22
2023-02-17T07:03:57.672Z,100974.00
2023-02-17T07:06:25.570Z,100963.84
2023-02-17T07:08:54.547Z,100956.28
2023-02-17T07:11:22.312Z,100956.41
2023-02-17T07:13:50.080Z,100953.66
2023-02-17T07:16:17.972Z,100949.31
2023-02-17T07:18:45.622Z,100953.81
2023-02-17T07:21:13.277Z,100960.50
2023-02-17T07:23:40.948Z,100947.22
2023-02-17T07:26:12.454Z,100950.59
2023-02-17T07:28:40.482Z,100955.47
2023-02-17T07:31:08.433Z,100961.38
2023-02-17T07:33:36.359Z,100958.41
2023-02-17T07:36:07.164Z,100950.41
2023-02-17T07:38:35.173Z,100939.88
2023-02-17T07:41:05.318Z,100942.75
2023-02-17T07:43:34.357Z,100948.63
2023-02-17T07:46:04.148Z,100935.03
2023-02-17T07:48:32.061Z,100940.34
2023-02-17T07:51:04.933Z,100931.34
2023-02-17T07:53:32.631Z,100933.69
2023-02-17T07:56:00.296Z,100920.09
2023-02-17T07:58:27.977Z,100930.19
2023-02-17T08:00:57.024Z,100923.50
2023-02-17T08:03:24.653Z,100913.28
2023-02-17T08:05:53.041Z,100926.31
2023-02-17T08:08:38.511Z,100911.13
2023-02-17T08:11:24.001Z,100909.75
2023-02-17T08:13:51.639Z,100926.47
2023-02-17T08:16:20.708Z,100930.34
2023-02-17T08:18:48.507Z,100923.78
2023-02-17T08:21:16.124Z,100925.53
2023-02-17T08:23:45.382Z,100914.94
2023-02-17T08:26:15.658Z,100935.31
2023-02-17T08:28:43.445Z,100921.25
2023-02-17T08:31:16.076Z,100917.00
2023-02-17T08:33:45.212Z,100924.63
2023-02-17T08:36:12.927Z,100923.94
2023-02-17T08:38:40.791Z,100917.84
2023-02-17T08:41:17.951Z,100916.53
2023-02-17T08:43:45.717Z,100918.50
2023-02-17T08:46:13.801Z,100915.69
2023-02-17T08:48:41.708Z,100918.16
2023-02-17T08:51:12.890Z,100913.03
2023-02-17T08:53:40.682Z,100916.69
2023-02-17T08:56:08.683Z,100916.34
2023-02-17T08:58:36.605Z,100911.44
2023-02-17T09:01:04.583Z,100912.31
2023-02-17T09:03:34.213Z,100911.44
2023-02-17T09:06:02.014Z,100900.41
2023-02-17T09:08:31.082Z,100889.78
2023-02-17T09:10:58.964Z,100879.94
2023-02-17T09:13:27.350Z,100875.38
2023-02-17T09:15:55.329Z,100873.53
2023-02-17T09:18:23.336Z,100858.88
2023-02-17T09:20:50.998Z,100847.59
2023-02-17T09:23:19.004Z,100854.47
2023-02-17T09:25:48.135Z,100848.81
2023-02-17T09:28:15.782Z,100839.75
2023-02-17T09:30:45.909Z,100831.94
2023-02-17T09:33:13.644Z,100832.16
2023-02-17T09:35:41.390Z,100829.13
2023-02-17T09:38:10.249Z,100822.88
2023-02-17T09:40:39.683Z,100818.34
2023-02-17T09:43:09.613Z,100826.56
2023-02-17T09:45:37.336Z,100815.50
2023-02-17T09:48:06.720Z,100804.75
2023-02-17T09:50:36.908Z,100805.41
2023-02-17T09:53:04.914Z,100811.91
2023-02-17T09:55:34.539Z,100790.94
2023-02-17T09:58:03.378Z,100788.28
2023-02-17T10:00:34.034Z,100790.78
2023-02-17T10:03:03.268Z,100787.16
2023-02-17T10:05:31.448Z,100779.69
2023-02-17T10:08:01.440Z,100773.03
2023-02-17T10:10:29.498Z,100778.31
2023-02-17T10:12:57.642Z,100774.88
2023-02-17T10:15:26.126Z,100771.94
2023-02-17T10:17:57.198Z,100760.88
2023-02-17T10:20:25.595Z,100762.94
2023-02-17T10:22:54.196Z,100761.75
2023-02-17T10:25:23.713Z,100743.84
2023-02-17T10:27:52.810Z,100757.06
2023-02-17T10:30:23.267Z,100749.44
2023-02-17T10:32:53.972Z,100753.91
2023-02-17T10:35:24.561Z,100735.69
2023-02-17T10:37:54.741Z,100727.50
2023-02-17T10:40:23.144Z,100719.09
2023-02-17T10:42:51.146Z,100736.13
2023-02-17T10:45:22.026Z,100732.22
2023-02-17T10:47:49.772Z,100719.00
2023-02-17T10:50:19.580Z,100717.59
2023-02-17T10:52:48.886Z,100712.50
2023-02-17T10:55:23.167Z,100701.56
2023-02-17T10:57:52.891Z,100707.69
2023-02-17T11:00:20.814Z,100695.09
2023-02-17T11:02:48.928Z,100682.44
2023-02-17T11:05:24.207Z,100685.03
2023-02-17T11:07:57.421Z,100674.28
2023-02-17T11:10:27.260Z,100663.94
2023-02-17T11:12:56.077Z,100659.53
2023-02-17T11:15:24.941Z,100654.88
2023-02-17T11:17:52.606Z,100625.84
2023-02-17T11:20:31.085Z,100627.88
2023-02-17T11:23:04.997Z,100619.00
2023-02-17T11:25:33.291Z,100621.56
2023-02-17T11:28:27.023Z,100601.91
2023-02-17T11:30:55.370Z,100592.84
2023-02-17T11:33:24.454Z,100599.22
2023-02-17T11:35:53.706Z,100595.56
2023-02-17T11:38:22.022Z,100582.09
2023-02-17T11:40:53.626Z,100581.66
2023-02-17T11:43:21.250Z,100578.81
2023-02-17T11:45:53.341Z,100571.09
2023-02-17T11:48:32.055Z,100558.88
2023-02-17T11:51:00.271Z,100551.44
2023-02-17T11:53:30.936Z,100538.56
2023-02-17T11:56:02.038Z,100534.72
2023-02-17T11:58:32.375Z,100517.16
2023-02-17T12:01:03.869Z,100528.34
2023-02-17T12:03:41.927Z,100516.13
2023-02-17T12:06:10.082Z,100498.34
2023-02-17T12:08:39.633Z,100484.03
2023-02-17T12:11:09.936Z,100486.25
2023-02-17T12:13:40.978Z,100495.94
2023-02-17T12:16:14.088Z,100487.97
2023-02-17T12:18:44.273Z,100485.50
2023-02-17T12:21:13.478Z,100491.81
2023-02-17T12:23:59.030Z,100496.31
2023-02-17T12:26:28.773Z,100474.13
2023-02-17T12:29:00.178Z,100465.75
2023-02-17T12:31:34.722Z,100459.34
2023-02-17T12:34:03.733Z,100473.88
2023-02-17T12:36:31.984Z,100451.28
2023-02-17T12:39:00.680Z,100452.41
2023-02-17T12:41:28.707Z,100453.75
2023-02-17T12:43:56.849Z,100443.19
2023-02-17T12:46:25.416Z,100447.25
2023-02-17T12:48:55.038Z,100439.06
2023-02-17T12:51:23.707Z,100419.22
2023-02-17T12:53:52.042Z,100418.22
2023-02-17T12:56:39.009Z,100417.41
2023-02-17T12:59:07.323Z,100416.72
2023-02-17T13:01:34.991Z,100417.63
2023-02-17T13:04:05.072Z,100424.88
2023-02-17T13:06:33.834Z,100420.06
2023-02-17T13:09:02.634Z,100424.47
2023-02-17T13:11:31.290Z,100419.84
2023-02-17T13:13:58.975Z,100426.72
2023-02-17T13:16:28.469Z,100425.31
2023-02-17T13:18:59.156Z,100418.59
2023-02-17T13:21:32.999Z,100410.94
2023-02-17T13:24:02.385Z,100420.13
2023-02-17T13:26:31.005Z,100422.81
2023-02-17T13:29:09.438Z,100424.59
2023-02-17T13:31:45.929Z,100412.75
2023-02-17T13:34:24.024Z,100420.72
2023-02-17T13:36:53.062Z,100398.16
2023-02-17T13:39:34.401Z,100403.09
2023-02-17T13:42:02.716Z,100398.56
2023-02-17T13:44:30.968Z,100391.72
2023-02-17T13:47:00.228Z,100399.16
2023-02-17T13:49:28.463Z,100389.22
2023-02-17T13:51:57.571Z,100374.69
2023-02-17T13:54:25.226Z,100386.59
2023-02-17T13:56:53.408Z,100383.00
2023-02-17T13:59:25.211Z,100378.94
2023-02-17T14:01:52.887Z,100373.25
2023-02-17T14:04:21.937Z,100375.84
2023-02-17T14:06:50.254Z,100378.81
2023-02-17T14:09:26.374Z,100386.88
2023-02-17T14:11:54.807Z,100388.28
2023-02-17T14:14:23.132Z,100390.13
2023-02-17T14:16:57.403Z,100398.63
2023-02-17T14:19:25.066Z,100401.47
2023-02-17T14:21:59.832Z,100392.31
2023-02-17T14:24:29.391Z,100382.16
2023-02-17T14:26:58.183Z,100407.13
2023-02-17T14:29:25.838Z,100410.78
2023-02-17T14:31:53.988Z,100398.84
2023-02-17T14:34:28.660Z,100401.03
2023-02-17T14:36:56.463Z,100393.00
2023-02-17T14:39:24.090Z,100390.91
2023-02-17T14:41:53.095Z,100423.91
2023-02-17T14:44:20.738Z,100411.59
2023-02-17T14:46:48.434Z,100423.97
2023-02-17T14:49:16.124Z,100420.88
2023-02-17T14:51:43.795Z,100436.31
2023-02-17T14:54:13.144Z,100450.91
2023-02-17T14:56:41.874Z,100443.06
2023-02-17T14:59:11.325Z,100448.94
2023-02-17T15:01:39.069Z,100467.56
2023-02-17T15:04:06.889Z,100442.94
2023-02-17T15:06:36.146Z,100451.66
2023-02-17T15:09:03.760Z,100440.09
2023-02-17T15:11:31.745Z,100433.13
2023-02-17T15:13:59.361Z,100436.47
2023-02-17T15:16:28.403Z,100424.91
2023-02-17T15:18:56.062Z,100457.97
2023-02-17T15:21:26.481Z,100446.28
2023-02-17T15:23:54.370Z,100433.97
2023-02-17T15:26:22.016Z,100441.03
2023-02-17T15:28:49.669Z,100429.44
2023-02-17T15:31:17.574Z,100423.53
2023-02-17T15:33:46.622Z,100438.88
2023-02-17T15:36:14.966Z,100431.84
2023-02-17T15:38:42.751Z,100438.53
2023-02-17T15:41:14.568Z,100421.06
2023-02-17T15:43:42.246Z,100437.28
2023-02-17T15:46:13.553Z,100429.97
2023-02-17T15:48:41.379Z,100426.25
2023-02-17T15:51:12.144Z,100416.06
2023-02-17T15:53:39.793Z,100418.78
2023-02-17T15:56:10.919Z,100403.75
2023-02-17T15:58:38.584Z,100399.25
2023-02-17T16:01:06.442Z,100395.34
2023-02-17T16:03:34.140Z,100420.16
2023-02-17T16:06:01.799Z,100417.94
2023-02-17T16:08:30.814Z,100416.16
2023-02-17T16:10:58.464Z,100416.56
2023-02-17T16:13:26.117Z,100406.50
2023-02-17T16:15:53.757Z,100401.72
2023-02-17T16:18:22.074Z,100415.53
2023-02-17T16:20:49.775Z,100415.25
2023-02-17T16:23:17.581Z,100425.00
2023-02-17T16:25:47.072Z,100428.09
2023-02-17T16:28:15.836Z,100413.56
2023-02-17T16:30:44.405Z,100413.91
2023-02-17T16:33:12.004Z,100433.75
2023-02-17T16:35:39.754Z,100423.81
2023-02-17T16:38:07.934Z,100468.59
2023-02-17T16:40:36.358Z,100467.38
2023-02-17T16:43:05.599Z,100436.88
2023-02-17T16:45:33.615Z,100453.13
2023-02-17T16:48:01.705Z,100450.31
2023-02-17T16:50:30.305Z,100469.22
2023-02-17T16:52:58.619Z,100446.16
2023-02-17T16:55:27.677Z,100454.72
2023-02-17T16:57:55.361Z,100459.88
2023-02-17T17:00:24.974Z,100438.69
2023-02-17T17:02:52.725Z,100468.97
2023-02-17T17:05:20.593Z,100441.09
2023-02-17T17:07:48.338Z,100437.94
2023-02-17T17:10:17.553Z,100452.28
2023-02-17T17:12:45.312Z,100465.06
2023-02-17T17:15:12.993Z,100465.31
2023-02-17T17:17:42.751Z,100472.38
2023-02-17T17:20:14.533Z,100466.91
2023-02-17T17:22:42.301Z,100449.88
2023-02-17T17:25:09.935Z,100426.72
2023-02-17T17:27:37.971Z,100462.03
2023-02-17T17:30:06.233Z,100457.00
2023-02-17T17:32:33.949Z,100440.84
2023-02-17T17:35:02.890Z,100452.09
2023-02-17T17:37:30.617Z,100445.81
2023-02-17T17:39:58.226Z,100438.69
2023-02-17T17:42:25.884Z,100450.47
2023-02-17T17:44:53.540Z,100440.69
2023-02-17T17:47:29.402Z,100440.50
2023-02-17T17:49:58.003Z,100435.31
2023-02-17T17:52:27.043Z,100465.94
2023-02-17T17:54:54.680Z,100441.59
2023-02-17T17:57:22.526Z,100449.66
2023-02-17T17:59:50.156Z,100452.31
2023-02-17T18:02:17.859Z,100464.06
2023-02-17T18:04:45.576Z,100474.84
2023-02-17T18:07:13.246Z,100472.34
2023-02-17T18:09:42.350Z,100465.53
2023-02-17T18:12:10.756Z,100438.94
2023-02-17T18:14:39.202Z,100453.16
2023-02-17T18:17:07.007Z,100497.16
2023-02-17T18:19:34.635Z,100480.19
2023-02-17T18:22:02.294Z,100486.81
2023-02-17T18:24:30.001Z,100488.06
2023-02-17T18:26:58.983Z,100516.00
2023-02-17T18:29:32.923Z,100528.72
2023-02-17T18:32:00.663Z,100536.69
2023-02-17T18:34:28.381Z,100556.50
2023-02-17T18:36:56.015Z,100577.03
2023-02-17T18:39:23.651Z,100574.91
2023-02-17T18:41:51.279Z,100604.69
2023-02-17T18:44:24.293Z,100586.34
2023-02-17T18:46:51.977Z,100593.75
2023-02-17T18:49:19.611Z,100598.00
2023-02-17T18:51:47.535Z,100590.13
2023-02-17T18:54:15.274Z,100581.13
2023-02-17T18:56:42.987Z,100562.63
2023-02-17T18:59:10.702Z,100588.22
2023-02-17T19:01:40.955Z,100605.22
2023-02-17T19:04:09.612Z,100596.59
2023-02-17T19:06:37.275Z,100600.34
2023-02-17T19:09:05.296Z,100602.22
2023-02-17T19:11:33.472Z,100603.91
2023-02-17T19:14:01.316Z,100600.03
2023-02-17T19:16:29.848Z,100609.06
2023-02-17T19:18:58.914Z,100617.31
2023-02-17T19:21:26.747Z,100626.47
2023-02-17T19:23:54.529Z,100624.69
2023-02-17T19:26:22.572Z,100645.97
2023-02-17T19:28:50.437Z,100633.91
2023-02-17T19:31:19.476Z,100639.25
2023-02-17T19:33:47.467Z,100666.09
2023-02-17T19:36:17.258Z,100657.28
2023-02-17T19:38:47.736Z,100664.00
2023-02-17T19:41:15.784Z,100667.31
2023-02-17T19:43:43.488Z,100684.28
2023-02-17T19:46:11.522Z,100676.25
2023-02-17T19:48:39.231Z,100673.41
2023-02-17T19:51:07.558Z,100676.88
2023-02-17T19:53:36.633Z,100670.13
2023-02-17T19:56:11.343Z,100693.00
2023-02-17T19:58:39.881Z,100716.38
2023-02-17T20:01:08.359Z,100713.81
2023-02-17T20:03:36.064Z,100705.59
2023-02-17T20:06:05.062Z,100706.97
2023-02-17T20:08:33.080Z,100706.69
2023-02-17T20:11:06.227Z,100716.09
2023-02-17T20:13:45.241Z,100721.66
2023-02-17T20:16:14.930Z,100706.44
2023-02-17T20:18:44.555Z,100706.53
2023-02-17T20:21:12.901Z,100718.81
2023-02-17T20:23:40.710Z,100716.47
2023-02-17T20:26:33.875Z,100709.25
2023-02-17T20:29:03.030Z,100742.41
2023-02-17T20:31:30.980Z,100720.09
2023-02-17T20:33:58.671Z,100724.03
2023-02-17T20:36:32.020Z,100730.47
2023-02-17T20:39:00.334Z,100722.03
2023-02-17T20:41:28.143Z,100708.25
2023-02-17T20:43:55.895Z,100741.88
2023-02-17T20:46:26.493Z,100755.03
2023-02-17T20:48:54.470Z,100759.88
2023-02-17T20:51:22.193Z,100760.50
2023-02-17T20:53:49.935Z,100761.22
2023-02-17T20:56:18.965Z,100766.66
2023-02-17T20:58:47.211Z,100768.72
2023-02-17T21:01:15.099Z,100775.56
2023-02-17T21:03:44.206Z,100775.97
2023-02-17T21:06:17.367Z,100789.47
2023-02-17T21:08:45.737Z,100790.72
2023-02-17T21:11:13.350Z,100793.72
2023-02-17T21:13:41.005Z,100798.94
2023-02-17T21:16:09.060Z,100812.06
2023-02-17T21:18:36.978Z,100823.13
2023-02-17T21:21:06.208Z,100808.66
2023-02-17T21:23:34.511Z,100813.06
2023-02-17T21:26:02.220Z,100805.91
2023-02-17T21:28:29.929Z,100817.38
2023-02-17T21:30:57.754Z,100813.84
2023-02-17T21:33:25.601Z,100819.78
2023-02-17T21:35:53.545Z,100823.63
2023-02-17T21:38:22.746Z,100809.97
2023-02-17T21:40:50.850Z,100818.94
2023-02-17T21:43:36.294Z,100829.25
2023-02-17T21:46:07.505Z,100832.09
2023-02-17T21:48:35.341Z,100842.41
2023-02-17T21:51:06.614Z,100835.06
2023-02-17T21:53:35.692Z,100854.81
2023-02-17T21:56:03.576Z,100837.06
2023-02-17T21:58:31.506Z,100829.81
2023-02-17T22:00:59.281Z,100840.84
2023-02-17T22:03:27.096Z,100840.75
2023-02-17T22:05:54.902Z,100842.00
2023-02-17T22:08:23.837Z,100839.56
2023-02-17T22:10:53.065Z,100831.22
2023-02-17T22:17:14.993Z,100860.69
2023-02-17T22:19:42.645Z,100874.75
2023-02-17T22:22:10.350Z,100828.66
2023-02-17T22:24:38.008Z,100891.41
2023-02-17T22:27:07.085Z,100896.44
2023-02-17T22:29:34.693Z,100894.34
2023-02-17T22:32:02.506Z,100886.19
2023-02-17T22:34:30.263Z,100892.53
2023-02-17T22:36:57.907Z,100884.72
2023-02-17T22:39:25.604Z,100890.84
2023-02-17T22:41:53.245Z,100898.41
2023-02-17T22:44:22.290Z,100896.56
2023-02-17T22:46:49.883Z,100914.13
2023-02-17T22:49:17.576Z,100903.31
2023-02-17T22:51:45.299Z,100939.50
2023-02-17T22:54:13.042Z,100928.63
2023-02-17T22:56:40.690Z,100915.19
2023-02-17T22:59:08.334Z,100943.09
2023-02-17T23:01:37.417Z,100925.75
2023-02-17T23:04:05.617Z,100884.97
2023-02-17T23:06:34.580Z,100917.16
2023-02-17T23:09:02.359Z,100919.41
2023-02-17T23:11:48.533Z,100912.00
2023-02-17T23:14:17.237Z,100898.31
2023-02-17T23:16:46.328Z,100908.84
2023-02-17T23:19:15.188Z,100921.38
2023-02-17T23:21:43.869Z,100919.22
2023-02-17T23:24:11.505Z,100923.03
2023-02-17T23:26:39.349Z,100914.28
2023-02-17T23:29:07.062Z,100930.34
2023-02-17T23:31:34.869Z,100931.59
2023-02-17T23:34:03.919Z,100927.06
2023-02-17T23:36:31.634Z,100957.41
2023-02-17T23:38:59.438Z,100935.19
2023-02-17T23:41:27.348Z,100946.28
2023-02-17T23:43:54.983Z,100943.47
2023-02-17T23:46:22.750Z,100965.00
2023-02-17T23:48:50.460Z,100937.97
2023-02-17T23:51:19.747Z,100961.69
2023-02-17T23:53:47.698Z,100941.84
2023-02-17T23:56:16.192Z,100942.38
2023-02-17T23:58:43.857Z,100947.06
